sensor_id;sensor_type;location;lat;lon;timestamp;pressure;altitude;pressure_sealevel;temperature;humidity
50634;BME280;36596;55.798;38.462;2022-08-03T00:01:35;99701.03;;;18.64;100.00
50634;BME280;36596;55.798;38.462;2022-08-03T00:04:01;99712.69;;;18.70;100.00
50634;BME280;36596;55.798;38.462;2022-08-03T00:06:27;99715.09;;;18.72;100.00
50634;BME280;36596;55.798;38.462;2022-08-03T00:08:52;99716.13;;;18.79;100.00
50634;BME280;36596;55.798;38.462;2022-08-03T00:11:18;99708.28;;;18.81;100.00
50634;BME280;36596;55.798;38.462;2022-08-03T00:13:47;99716.41;;;18.86;100.00
50634;BME280;36596;55.798;38.462;2022-08-03T00:16:13;99718.69;;;18.84;100.00
50634;BME280;36596;55.798;38.462;2022-08-03T00:18:39;99717.88;;;18.84;100.00
50634;BME280;36596;55.798;38.462;2022-08-03T00:21:08;99723.03;;;18.85;100.00
50634;BME280;36596;55.798;38.462;2022-08-03T00:23:34;99722.94;;;18.82;100.00
50634;BME280;36596;55.798;38.462;2022-08-03T00:26:00;99718.09;;;18.79;100.00
50634;BME280;36596;55.798;38.462;2022-08-03T00:28:26;99721.66;;;18.79;100.00
50634;BME280;36596;55.798;38.462;2022-08-03T00:30:52;99719.25;;;18.78;100.00
50634;BME280;36596;55.798;38.462;2022-08-03T00:33:18;99720.38;;;18.77;100.00
50634;BME280;36596;55.798;38.462;2022-08-03T00:35:44;99721.66;;;18.79;100.00
50634;BME280;36596;55.798;38.462;2022-08-03T00:38:09;99723.16;;;18.77;100.00
50634;BME280;36596;55.798;38.462;2022-08-03T00:40:35;99713.63;;;18.74;100.00
50634;BME280;36596;55.798;38.462;2022-08-03T00:43:03;99719.13;;;18.74;100.00
50634;BME280;36596;55.798;38.462;2022-08-03T00:45:32;99716.13;;;18.79;100.00
50634;BME280;36596;55.798;38.462;2022-08-03T00:47:58;99720.19;;;18.82;100.00
50634;BME280;36596;55.798;38.462;2022-08-03T00:50:26;99721.31;;;18.81;100.00
50634;BME280;36596;55.798;38.462;2022-08-03T00:52:54;99722.59;;;18.83;100.00
50634;BME280;36596;55.798;38.462;2022-08-03T00:55:23;99713.38;;;18.79;100.00
50634;BME280;36596;55.798;38.462;2022-08-03T00:57:50;99720.03;;;18.78;100.00
50634;BME280;36596;55.798;38.462;2022-08-03T01:00:19;99715.69;;;18.77;100.00
50634;BME280;36596;55.798;38.462;2022-08-03T01:02:46;99714.28;;;18.71;100.00
50634;BME280;36596;55.798;38.462;2022-08-03T01:05:12;99720.84;;;18.66;100.00
50634;BME280;36596;55.798;38.462;2022-08-03T01:13:36;99714.63;;;18.57;100.00
50634;BME280;36596;55.798;38.462;2022-08-03T01:16:27;99720.13;;;18.57;100.00
50634;BME280;36596;55.798;38.462;2022-08-03T01:19:23;99712.88;;;18.52;100.00
50634;BME280;36596;55.798;38.462;2022-08-03T01:30:26;99705.06;;;18.21;100.00
50634;BME280;36596;55.798;38.462;2022-08-03T01:33:04;99705.06;;;18.21;100.00
50634;BME280;36596;55.798;38.462;2022-08-03T01:36:02;99725.34;;;18.25;100.00
50634;BME280;36596;55.798;38.462;2022-08-03T01:38:35;99727.50;;;18.20;100.00
50634;BME280;36596;55.798;38.462;2022-08-03T01:41:06;99730.34;;;18.11;100.00
50634;BME280;36596;55.798;38.462;2022-08-03T01:43:33;99737.22;;;18.05;100.00
50634;BME280;36596;55.798;38.462;2022-08-03T01:46:00;99733.41;;;17.97;100.00
50634;BME280;36596;55.798;38.462;2022-08-03T01:48:27;99731.19;;;17.90;100.00
50634;BME280;36596;55.798;38.462;2022-08-03T01:50:55;99730.38;;;17.90;100.00
50634;BME280;36596;55.798;38.462;2022-08-03T01:53:23;99736.84;;;17.94;100.00
50634;BME280;36596;55.798;38.462;2022-08-03T01:55:52;99739.63;;;17.94;100.00
50634;BME280;36596;55.798;38.462;2022-08-03T01:58:19;99744.19;;;17.90;100.00
50634;BME280;36596;55.798;38.462;2022-08-03T02:00:48;99736.41;;;17.83;100.00
50634;BME280;36596;55.798;38.462;2022-08-03T02:03:14;99746.13;;;17.89;100.00
50634;BME280;36596;55.798;38.462;2022-08-03T02:05:44;99746.06;;;17.98;100.00
50634;BME280;36596;55.798;38.462;2022-08-03T02:08:12;99748.34;;;17.96;100.00
50634;BME280;36596;55.798;38.462;2022-08-03T02:10:41;99741.72;;;17.88;100.00
50634;BME280;36596;55.798;38.462;2022-08-03T02:13:08;99736.75;;;17.81;100.00
50634;BME280;36596;55.798;38.462;2022-08-03T02:15:36;99745.84;;;17.82;100.00
50634;BME280;36596;55.798;38.462;2022-08-03T02:18:05;99744.41;;;17.76;100.00
50634;BME280;36596;55.798;38.462;2022-08-03T02:20:33;99744.91;;;17.78;100.00
50634;BME280;36596;55.798;38.462;2022-08-03T02:23:02;99741.47;;;17.81;100.00
50634;BME280;36596;55.798;38.462;2022-08-03T02:25:29;99743.66;;;17.88;100.00
50634;BME280;36596;55.798;38.462;2022-08-03T02:27:57;99748.88;;;17.89;100.00
50634;BME280;36596;55.798;38.462;2022-08-03T02:30:31;99748.84;;;17.98;100.00
50634;BME280;36596;55.798;38.462;2022-08-03T02:32:58;99742.38;;;17.94;100.00
50634;BME280;36596;55.798;38.462;2022-08-03T02:35:28;99743.50;;;17.93;100.00
50634;BME280;36596;55.798;38.462;2022-08-03T02:38:03;99758.19;;;18.06;100.00
50634;BME280;36596;55.798;38.462;2022-08-03T02:40:31;99754.94;;;18.04;100.00
50634;BME280;36596;55.798;38.462;2022-08-03T02:43:10;99745.19;;;18.06;100.00
50634;BME280;36596;55.798;38.462;2022-08-03T02:45:41;99753.00;;;18.04;100.00
50634;BME280;36596;55.798;38.462;2022-08-03T02:48:10;99751.72;;;18.02;100.00
50634;BME280;36596;55.798;38.462;2022-08-03T02:50:37;99748.16;;;18.01;100.00
50634;BME280;36596;55.798;38.462;2022-08-03T02:53:04;99751.03;;;18.05;100.00
50634;BME280;36596;55.798;38.462;2022-08-03T02:55:33;99756.03;;;18.11;100.00
50634;BME280;36596;55.798;38.462;2022-08-03T02:57:59;99754.84;;;18.12;100.00
50634;BME280;36596;55.798;38.462;2022-08-03T03:00:27;99763.28;;;18.16;100.00
50634;BME280;36596;55.798;38.462;2022-08-03T03:02:58;99762.94;;;18.17;100.00
50634;BME280;36596;55.798;38.462;2022-08-03T03:05:29;99766.38;;;18.14;100.00
50634;BME280;36596;55.798;38.462;2022-08-03T03:07:56;99767.19;;;18.15;100.00
50634;BME280;36596;55.798;38.462;2022-08-03T03:10:23;99770.53;;;18.21;100.00
50634;BME280;36596;55.798;38.462;2022-08-03T03:12:59;99769.31;;;18.30;100.00
50634;BME280;36596;55.798;38.462;2022-08-03T03:15:27;99774.28;;;18.37;100.00
50634;BME280;36596;55.798;38.462;2022-08-03T03:17:56;99757.63;;;18.46;100.00
50634;BME280;36596;55.798;38.462;2022-08-03T03:20:24;99761.59;;;18.57;100.00
50634;BME280;36596;55.798;38.462;2022-08-03T03:22:51;99762.19;;;18.63;100.00
50634;BME280;36596;55.798;38.462;2022-08-03T03:25:18;99753.31;;;18.69;100.00
50634;BME280;36596;55.798;38.462;2022-08-03T03:27:47;99749.88;;;18.85;100.00
50634;BME280;36596;55.798;38.462;2022-08-03T03:30:13;99760.97;;;18.97;100.00
50634;BME280;36596;55.798;38.462;2022-08-03T03:32:39;99761.47;;;18.99;100.00
50634;BME280;36596;55.798;38.462;2022-08-03T03:35:06;99748.91;;;19.02;100.00
50634;BME280;36596;55.798;38.462;2022-08-03T03:37:34;99758.34;;;19.13;100.00
50634;BME280;36596;55.798;38.462;2022-08-03T03:40:00;99759.41;;;19.21;100.00
50634;BME280;36596;55.798;38.462;2022-08-03T03:42:28;99765.59;;;19.30;100.00
50634;BME280;36596;55.798;38.462;2022-08-03T03:44:54;99749.47;;;19.32;100.00
50634;BME280;36596;55.798;38.462;2022-08-03T03:47:20;99755.81;;;19.33;100.00
50634;BME280;36596;55.798;38.462;2022-08-03T03:49:46;99761.56;;;19.40;100.00
50634;BME280;36596;55.798;38.462;2022-08-03T03:52:12;99755.44;;;19.47;100.00
50634;BME280;36596;55.798;38.462;2022-08-03T03:54:42;99766.59;;;19.63;100.00
50634;BME280;36596;55.798;38.462;2022-08-03T03:57:08;99760.22;;;19.74;100.00
50634;BME280;36596;55.798;38.462;2022-08-03T03:59:41;99750.31;;;19.86;100.00
50634;BME280;36596;55.798;38.462;2022-08-03T04:02:09;99757.00;;;19.97;100.00
50634;BME280;36596;55.798;38.462;2022-08-03T04:04:36;99752.91;;;20.07;100.00
50634;BME280;36596;55.798;38.462;2022-08-03T04:07:24;99753.09;;;20.14;100.00
50634;BME280;36596;55.798;38.462;2022-08-03T04:10:14;99754.56;;;20.24;100.00
50634;BME280;36596;55.798;38.462;2022-08-03T04:13:02;99758.81;;;20.34;100.00
50634;BME280;36596;55.798;38.462;2022-08-03T04:15:30;99753.91;;;20.43;100.00
50634;BME280;36596;55.798;38.462;2022-08-03T04:17:57;99756.41;;;20.48;100.00
50634;BME280;36596;55.798;38.462;2022-08-03T04:20:27;99765.56;;;20.65;100.00
50634;BME280;36596;55.798;38.462;2022-08-03T04:22:55;99758.63;;;20.71;100.00
50634;BME280;36596;55.798;38.462;2022-08-03T04:25:27;99755.94;;;20.74;100.00
50634;BME280;36596;55.798;38.462;2022-08-03T04:27:54;99756.22;;;20.85;100.00
50634;BME280;36596;55.798;38.462;2022-08-03T04:30:25;99752.91;;;20.95;100.00
50634;BME280;36596;55.798;38.462;2022-08-03T04:32:54;99767.03;;;21.06;100.00
50634;BME280;36596;55.798;38.462;2022-08-03T04:35:23;99761.72;;;21.17;100.00
50634;BME280;36596;55.798;38.462;2022-08-03T04:37:51;99759.59;;;21.26;100.00
50634;BME280;36596;55.798;38.462;2022-08-03T04:40:36;99759.13;;;21.40;100.00
50634;BME280;36596;55.798;38.462;2022-08-03T04:43:04;99761.69;;;21.49;100.00
50634;BME280;36596;55.798;38.462;2022-08-03T04:45:33;99750.16;;;21.47;100.00
50634;BME280;36596;55.798;38.462;2022-08-03T04:48:00;99763.78;;;21.52;100.00
50634;BME280;36596;55.798;38.462;2022-08-03T04:50:26;99752.66;;;21.52;100.00
50634;BME280;36596;55.798;38.462;2022-08-03T04:53:05;99760.28;;;21.55;100.00
50634;BME280;36596;55.798;38.462;2022-08-03T04:55:33;99763.50;;;21.57;100.00
50634;BME280;36596;55.798;38.462;2022-08-03T04:58:00;99758.75;;;21.58;100.00
50634;BME280;36596;55.798;38.462;2022-08-03T05:00:27;99768.84;;;21.66;100.00
50634;BME280;36596;55.798;38.462;2022-08-03T05:02:53;99766.31;;;21.77;100.00
50634;BME280;36596;55.798;38.462;2022-08-03T05:05:20;99761.00;;;21.88;100.00
50634;BME280;36596;55.798;38.462;2022-08-03T05:07:51;99762.63;;;22.08;100.00
50634;BME280;36596;55.798;38.462;2022-08-03T05:10:20;99757.78;;;22.25;100.00
50634;BME280;36596;55.798;38.462;2022-08-03T05:12:47;99764.06;;;22.41;100.00
50634;BME280;36596;55.798;38.462;2022-08-03T05:15:13;99755.88;;;22.48;100.00
50634;BME280;36596;55.798;38.462;2022-08-03T05:17:39;99746.28;;;22.46;100.00
50634;BME280;36596;55.798;38.462;2022-08-03T05:20:05;99761.19;;;22.57;100.00
50634;BME280;36596;55.798;38.462;2022-08-03T05:22:31;99751.81;;;22.65;100.00
50634;BME280;36596;55.798;38.462;2022-08-03T05:24:57;99749.22;;;22.76;100.00
50634;BME280;36596;55.798;38.462;2022-08-03T05:27:22;99746.97;;;22.85;100.00
50634;BME280;36596;55.798;38.462;2022-08-03T05:29:49;99752.00;;;22.99;100.00
50634;BME280;36596;55.798;38.462;2022-08-03T05:32:16;99757.22;;;23.04;100.00
50634;BME280;36596;55.798;38.462;2022-08-03T05:34:43;99758.19;;;23.12;100.00
50634;BME280;36596;55.798;38.462;2022-08-03T05:37:09;99759.16;;;23.24;100.00
50634;BME280;36596;55.798;38.462;2022-08-03T05:39:35;99753.44;;;23.39;100.00
50634;BME280;36596;55.798;38.462;2022-08-03T05:42:01;99750.72;;;23.43;100.00
50634;BME280;36596;55.798;38.462;2022-08-03T05:44:27;99755.69;;;23.57;100.00
50634;BME280;36596;55.798;38.462;2022-08-03T05:46:54;99754.91;;;23.60;100.00
50634;BME280;36596;55.798;38.462;2022-08-03T05:49:19;99750.69;;;23.70;100.00
50634;BME280;36596;55.798;38.462;2022-08-03T05:51:50;99753.72;;;23.88;100.00
50634;BME280;36596;55.798;38.462;2022-08-03T05:54:16;99759.06;;;24.00;100.00
50634;BME280;36596;55.798;38.462;2022-08-03T05:56:41;99754.34;;;24.04;100.00
50634;BME280;36596;55.798;38.462;2022-08-03T05:59:08;99759.19;;;24.11;100.00
50634;BME280;36596;55.798;38.462;2022-08-03T06:01:34;99748.91;;;24.15;100.00
50634;BME280;36596;55.798;38.462;2022-08-03T06:04:00;99748.59;;;24.24;100.00
50634;BME280;36596;55.798;38.462;2022-08-03T06:06:25;99746.31;;;24.33;100.00
50634;BME280;36596;55.798;38.462;2022-08-03T06:08:51;99740.50;;;24.49;100.00
50634;BME280;36596;55.798;38.462;2022-08-03T06:11:17;99747.44;;;24.63;100.00
50634;BME280;36596;55.798;38.462;2022-08-03T06:13:43;99742.75;;;24.70;100.00
50634;BME280;36596;55.798;38.462;2022-08-03T06:16:09;99737.25;;;24.81;100.00
50634;BME280;36596;55.798;38.462;2022-08-03T06:18:36;99743.31;;;24.90;100.00
50634;BME280;36596;55.798;38.462;2022-08-03T06:21:03;99737.44;;;25.03;100.00
50634;BME280;36596;55.798;38.462;2022-08-03T06:23:29;99737.50;;;25.10;100.00
50634;BME280;36596;55.798;38.462;2022-08-03T06:25:54;99737.47;;;25.06;100.00
50634;BME280;36596;55.798;38.462;2022-08-03T06:28:20;99732.25;;;25.05;100.00
50634;BME280;36596;55.798;38.462;2022-08-03T06:30:46;99733.50;;;25.11;100.00
50634;BME280;36596;55.798;38.462;2022-08-03T06:33:12;99735.59;;;25.25;100.00
50634;BME280;36596;55.798;38.462;2022-08-03T06:35:38;99728.94;;;25.33;100.00
50634;BME280;36596;55.798;38.462;2022-08-03T06:38:03;99732.16;;;25.42;100.00
50634;BME280;36596;55.798;38.462;2022-08-03T06:40:29;99737.41;;;25.55;100.00
50634;BME280;36596;55.798;38.462;2022-08-03T06:42:56;99741.06;;;25.62;100.00
50634;BME280;36596;55.798;38.462;2022-08-03T06:45:22;99739.94;;;25.74;100.00
50634;BME280;36596;55.798;38.462;2022-08-03T06:48:04;99738.41;;;25.95;100.00
50634;BME280;36596;55.798;38.462;2022-08-03T06:50:30;99729.28;;;26.02;100.00
50634;BME280;36596;55.798;38.462;2022-08-03T06:52:56;99732.13;;;26.16;100.00
50634;BME280;36596;55.798;38.462;2022-08-03T06:55:22;99731.38;;;26.33;100.00
50634;BME280;36596;55.798;38.462;2022-08-03T06:57:47;99733.78;;;26.42;100.00
50634;BME280;36596;55.798;38.462;2022-08-03T07:00:13;99727.81;;;26.44;100.00
50634;BME280;36596;55.798;38.462;2022-08-03T07:02:39;99733.81;;;26.60;100.00
50634;BME280;36596;55.798;38.462;2022-08-03T07:05:07;99732.66;;;26.65;100.00
50634;BME280;36596;55.798;38.462;2022-08-03T07:07:33;99729.84;;;26.65;100.00
50634;BME280;36596;55.798;38.462;2022-08-03T07:09:59;99726.66;;;26.70;100.00
50634;BME280;36596;55.798;38.462;2022-08-03T07:12:28;99733.47;;;26.91;100.00
50634;BME280;36596;55.798;38.462;2022-08-03T07:14:54;99733.88;;;27.03;100.00
50634;BME280;36596;55.798;38.462;2022-08-03T07:17:20;99739.47;;;27.18;100.00
50634;BME280;36596;55.798;38.462;2022-08-03T07:19:46;99740.25;;;27.26;100.00
50634;BME280;36596;55.798;38.462;2022-08-03T07:22:12;99736.28;;;27.41;100.00
50634;BME280;36596;55.798;38.462;2022-08-03T07:24:43;99729.84;;;27.48;100.00
50634;BME280;36596;55.798;38.462;2022-08-03T07:27:10;99734.19;;;27.67;100.00
50634;BME280;36596;55.798;38.462;2022-08-03T07:29:36;99732.97;;;27.71;100.00
50634;BME280;36596;55.798;38.462;2022-08-03T07:32:03;99740.19;;;27.72;100.00
50634;BME280;36596;55.798;38.462;2022-08-03T07:34:29;99731.34;;;27.81;100.00
50634;BME280;36596;55.798;38.462;2022-08-03T07:36:55;99730.47;;;27.95;100.00
50634;BME280;36596;55.798;38.462;2022-08-03T07:39:21;99721.31;;;27.91;100.00
50634;BME280;36596;55.798;38.462;2022-08-03T07:41:46;99729.69;;;27.95;100.00
50634;BME280;36596;55.798;38.462;2022-08-03T07:44:14;99726.03;;;28.12;100.00
50634;BME280;36596;55.798;38.462;2022-08-03T07:46:40;99731.22;;;28.14;100.00
50634;BME280;36596;55.798;38.462;2022-08-03T07:49:06;99716.03;;;28.07;100.00
50634;BME280;36596;55.798;38.462;2022-08-03T07:51:32;99714.44;;;28.10;100.00
50634;BME280;36596;55.798;38.462;2022-08-03T07:53:58;99723.22;;;28.16;98.81
50634;BME280;36596;55.798;38.462;2022-08-03T07:56:27;99736.41;;;28.15;99.36
50634;BME280;36596;55.798;38.462;2022-08-03T07:58:53;99722.41;;;28.19;98.99
50634;BME280;36596;55.798;38.462;2022-08-03T08:01:20;99731.47;;;28.37;99.25
50634;BME280;36596;55.798;38.462;2022-08-03T08:03:49;99734.88;;;28.77;99.20
50634;BME280;36596;55.798;38.462;2022-08-03T08:06:16;99727.00;;;29.07;93.12
50634;BME280;36596;55.798;38.462;2022-08-03T08:08:45;99732.31;;;29.39;93.03
50634;BME280;36596;55.798;38.462;2022-08-03T08:11:13;99736.97;;;29.57;90.81
50634;BME280;36596;55.798;38.462;2022-08-03T08:13:39;99734.00;;;29.68;90.98
50634;BME280;36596;55.798;38.462;2022-08-03T08:16:05;99735.53;;;29.76;89.77
50634;BME280;36596;55.798;38.462;2022-08-03T08:18:31;99732.44;;;30.01;87.84
50634;BME280;36596;55.798;38.462;2022-08-03T08:20:57;99719.69;;;29.93;88.50
50634;BME280;36596;55.798;38.462;2022-08-03T08:23:23;99724.50;;;29.58;90.03
50634;BME280;36596;55.798;38.462;2022-08-03T08:25:50;99737.47;;;29.44;92.29
50634;BME280;36596;55.798;38.462;2022-08-03T08:28:19;99722.72;;;29.37;93.35
50634;BME280;36596;55.798;38.462;2022-08-03T08:30:46;99721.47;;;29.41;93.40
50634;BME280;36596;55.798;38.462;2022-08-03T08:33:12;99742.78;;;29.39;91.66
50634;BME280;36596;55.798;38.462;2022-08-03T08:35:38;99728.53;;;29.57;91.88
50634;BME280;36596;55.798;38.462;2022-08-03T08:38:06;99733.06;;;29.81;90.91
50634;BME280;36596;55.798;38.462;2022-08-03T08:40:32;99728.09;;;29.96;92.26
50634;BME280;36596;55.798;38.462;2022-08-03T08:42:57;99723.72;;;30.23;89.39
50634;BME280;36596;55.798;38.462;2022-08-03T08:45:24;99728.13;;;30.24;88.50
50634;BME280;36596;55.798;38.462;2022-08-03T08:47:50;99724.94;;;30.22;90.24
50634;BME280;36596;55.798;38.462;2022-08-03T08:50:20;99730.63;;;30.18;90.13
50634;BME280;36596;55.798;38.462;2022-08-03T08:52:48;99725.69;;;29.95;90.85
50634;BME280;36596;55.798;38.462;2022-08-03T08:55:18;99720.50;;;29.93;92.67
50634;BME280;36596;55.798;38.462;2022-08-03T08:58:05;99734.75;;;30.10;90.61
50634;BME280;36596;55.798;38.462;2022-08-03T09:00:31;99729.91;;;30.10;89.34
50634;BME280;36596;55.798;38.462;2022-08-03T09:02:57;99731.84;;;30.17;88.64
50634;BME280;36596;55.798;38.462;2022-08-03T09:05:23;99731.88;;;30.44;88.16
50634;BME280;36596;55.798;38.462;2022-08-03T09:07:49;99732.00;;;30.33;89.99
50634;BME280;36596;55.798;38.462;2022-08-03T09:10:16;99729.22;;;30.61;88.53
50634;BME280;36596;55.798;38.462;2022-08-03T09:12:49;99738.22;;;30.48;89.23
50634;BME280;36596;55.798;38.462;2022-08-03T09:17:46;99732.63;;;29.87;92.48
50634;BME280;36596;55.798;38.462;2022-08-03T09:20:12;99736.75;;;30.09;94.12
50634;BME280;36596;55.798;38.462;2022-08-03T09:22:53;99735.03;;;31.01;90.52
50634;BME280;36596;55.798;38.462;2022-08-03T09:25:19;99731.22;;;31.55;84.02
50634;BME280;36596;55.798;38.462;2022-08-03T09:27:50;99724.59;;;31.22;83.86
50634;BME280;36596;55.798;38.462;2022-08-03T09:30:17;99742.25;;;30.75;86.56
50634;BME280;36596;55.798;38.462;2022-08-03T09:32:43;99725.25;;;30.27;88.84
50634;BME280;36596;55.798;38.462;2022-08-03T09:35:11;99733.84;;;29.86;91.92
50634;BME280;36596;55.798;38.462;2022-08-03T09:37:38;99741.25;;;29.69;92.78
50634;BME280;36596;55.798;38.462;2022-08-03T09:40:04;99740.47;;;29.64;93.11
50634;BME280;36596;55.798;38.462;2022-08-03T09:42:33;99736.13;;;29.60;94.03
50634;BME280;36596;55.798;38.462;2022-08-03T09:45:03;99736.81;;;29.71;93.87
50634;BME280;36596;55.798;38.462;2022-08-03T09:47:31;99749.97;;;29.78;93.94
50634;BME280;36596;55.798;38.462;2022-08-03T09:50:04;99730.38;;;29.71;94.36
50634;BME280;36596;55.798;38.462;2022-08-03T09:52:37;99738.00;;;29.70;94.00
50634;BME280;36596;55.798;38.462;2022-08-03T09:55:12;99732.19;;;30.19;91.86
50634;BME280;36596;55.798;38.462;2022-08-03T09:57:38;99725.59;;;31.55;86.21
50634;BME280;36596;55.798;38.462;2022-08-03T10:00:21;99728.13;;;32.99;80.85
50634;BME280;36596;55.798;38.462;2022-08-03T10:02:47;99717.81;;;34.23;75.39
50634;BME280;36596;55.798;38.462;2022-08-03T10:05:15;99718.56;;;34.40;70.45
50634;BME280;36596;55.798;38.462;2022-08-03T10:07:46;99716.63;;;35.23;70.31
50634;BME280;36596;55.798;38.462;2022-08-03T10:10:14;99714.66;;;36.21;65.57
50634;BME280;36596;55.798;38.462;2022-08-03T10:12:42;99723.47;;;36.55;62.69
50634;BME280;36596;55.798;38.462;2022-08-03T10:15:09;99710.94;;;36.84;61.31
50634;BME280;36596;55.798;38.462;2022-08-03T10:17:35;99717.38;;;36.75;61.68
50634;BME280;36596;55.798;38.462;2022-08-03T10:20:04;99716.50;;;36.87;61.67
50634;BME280;36596;55.798;38.462;2022-08-03T10:22:33;99710.03;;;37.15;62.48
50634;BME280;36596;55.798;38.462;2022-08-03T10:25:11;99713.22;;;37.35;60.37
50634;BME280;36596;55.798;38.462;2022-08-03T10:27:39;99715.56;;;37.18;60.18
50634;BME280;36596;55.798;38.462;2022-08-03T10:30:10;99716.19;;;37.04;59.02
50634;BME280;36596;55.798;38.462;2022-08-03T10:32:51;99717.09;;;36.82;62.07
50634;BME280;36596;55.798;38.462;2022-08-03T10:35:20;99724.13;;;37.28;60.36
50634;BME280;36596;55.798;38.462;2022-08-03T10:37:57;99716.38;;;37.47;59.65
50634;BME280;36596;55.798;38.462;2022-08-03T10:40:26;99720.97;;;37.44;59.54
50634;BME280;36596;55.798;38.462;2022-08-03T10:42:55;99718.09;;;37.72;57.68
50634;BME280;36596;55.798;38.462;2022-08-03T10:45:25;99717.56;;;38.53;56.10
50634;BME280;36596;55.798;38.462;2022-08-03T10:47:53;99718.59;;;38.41;54.74
50634;BME280;36596;55.798;38.462;2022-08-03T10:50:22;99728.72;;;38.33;53.72
50634;BME280;36596;55.798;38.462;2022-08-03T10:52:59;99716.91;;;39.16;52.34
50634;BME280;36596;55.798;38.462;2022-08-03T10:55:36;99717.59;;;39.80;51.21
50634;BME280;36596;55.798;38.462;2022-08-03T11:01:12;99720.56;;;39.71;50.91
50634;BME280;36596;55.798;38.462;2022-08-03T11:06:22;99712.28;;;38.94;51.01
50634;BME280;36596;55.798;38.462;2022-08-03T11:11:39;99716.88;;;40.45;47.72
50634;BME280;36596;55.798;38.462;2022-08-03T11:14:18;99712.16;;;40.77;48.75
50634;BME280;36596;55.798;38.462;2022-08-03T11:19:18;99704.75;;;41.27;46.83
50634;BME280;36596;55.798;38.462;2022-08-03T11:27:16;99702.66;;;40.86;47.24
50634;BME280;36596;55.798;38.462;2022-08-03T11:35:30;99716.31;;;38.45;52.91
50634;BME280;36596;55.798;38.462;2022-08-03T11:46:06;99707.09;;;40.87;45.59
50634;BME280;36596;55.798;38.462;2022-08-03T11:48:37;99711.84;;;40.75;44.75
50634;BME280;36596;55.798;38.462;2022-08-03T11:51:05;99709.25;;;40.21;46.44
50634;BME280;36596;55.798;38.462;2022-08-03T11:53:32;99708.47;;;40.56;46.61
50634;BME280;36596;55.798;38.462;2022-08-03T11:55:59;99708.66;;;41.29;45.66
50634;BME280;36596;55.798;38.462;2022-08-03T11:58:26;99700.06;;;41.29;41.73
50634;BME280;36596;55.798;38.462;2022-08-03T12:00:52;99699.47;;;41.98;40.86
50634;BME280;36596;55.798;38.462;2022-08-03T12:03:31;99693.97;;;42.58;39.64
50634;BME280;36596;55.798;38.462;2022-08-03T12:05:57;99703.50;;;41.54;41.06
50634;BME280;36596;55.798;38.462;2022-08-03T12:10:52;99700.16;;;40.38;46.47
50634;BME280;36596;55.798;38.462;2022-08-03T12:13:19;99699.59;;;39.20;49.32
50634;BME280;36596;55.798;38.462;2022-08-03T12:15:53;99697.94;;;39.04;52.36
50634;BME280;36596;55.798;38.462;2022-08-03T12:18:22;99706.31;;;38.83;51.42
50634;BME280;36596;55.798;38.462;2022-08-03T12:20:50;99711.78;;;37.77;55.22
50634;BME280;36596;55.798;38.462;2022-08-03T12:23:18;99707.34;;;37.11;58.26
50634;BME280;36596;55.798;38.462;2022-08-03T12:25:46;99710.72;;;36.60;60.33
50634;BME280;36596;55.798;38.462;2022-08-03T12:28:17;99710.22;;;35.89;63.10
50634;BME280;36596;55.798;38.462;2022-08-03T12:30:45;99699.81;;;35.29;65.85
50634;BME280;36596;55.798;38.462;2022-08-03T12:35:46;99712.50;;;33.70;73.18
50634;BME280;36596;55.798;38.462;2022-08-03T12:38:18;99721.09;;;33.20;75.90
50634;BME280;36596;55.798;38.462;2022-08-03T12:40:54;99717.16;;;33.01;76.25
50634;BME280;36596;55.798;38.462;2022-08-03T12:43:20;99718.75;;;32.69;78.26
50634;BME280;36596;55.798;38.462;2022-08-03T12:45:46;99708.31;;;32.50;78.85
50634;BME280;36596;55.798;38.462;2022-08-03T12:48:12;99714.09;;;32.26;80.23
50634;BME280;36596;55.798;38.462;2022-08-03T12:50:38;99726.91;;;32.11;79.70
50634;BME280;36596;55.798;38.462;2022-08-03T12:53:07;99722.28;;;32.00;81.37
50634;BME280;36596;55.798;38.462;2022-08-03T12:55:34;99730.91;;;31.93;81.69
50634;BME280;36596;55.798;38.462;2022-08-03T12:58:00;99731.56;;;31.81;81.86
50634;BME280;36596;55.798;38.462;2022-08-03T13:00:26;99726.84;;;31.74;81.50
50634;BME280;36596;55.798;38.462;2022-08-03T13:05:24;99721.44;;;31.63;83.13
50634;BME280;36596;55.798;38.462;2022-08-03T13:07:50;99724.81;;;31.54;84.51
50634;BME280;36596;55.798;38.462;2022-08-03T13:10:31;99737.19;;;31.61;85.26
50634;BME280;36596;55.798;38.462;2022-08-03T13:12:58;99728.97;;;31.46;85.35
50634;BME280;36596;55.798;38.462;2022-08-03T13:15:29;99728.00;;;31.57;85.96
50634;BME280;36596;55.798;38.462;2022-08-03T13:17:55;99733.44;;;31.67;84.76
50634;BME280;36596;55.798;38.462;2022-08-03T13:20:21;99728.75;;;31.81;84.21
50634;BME280;36596;55.798;38.462;2022-08-03T13:22:48;99730.03;;;31.96;82.68
50634;BME280;36596;55.798;38.462;2022-08-03T13:25:14;99730.31;;;32.02;83.68
50634;BME280;36596;55.798;38.462;2022-08-03T13:27:43;99725.75;;;32.08;85.07
50634;BME280;36596;55.798;38.462;2022-08-03T13:30:10;99721.06;;;32.21;83.17
50634;BME280;36596;55.798;38.462;2022-08-03T13:32:36;99719.84;;;32.02;82.75
50634;BME280;36596;55.798;38.462;2022-08-03T13:35:02;99723.53;;;31.79;83.51
50634;BME280;36596;55.798;38.462;2022-08-03T13:37:30;99730.59;;;31.87;88.08
50634;BME280;36596;55.798;38.462;2022-08-03T13:40:00;99727.06;;;32.03;85.46
50634;BME280;36596;55.798;38.462;2022-08-03T13:42:31;99729.09;;;32.03;83.54
50634;BME280;36596;55.798;38.462;2022-08-03T13:44:58;99724.69;;;32.38;86.57